Time;durP1;ratioP1;P1;durP2;ratioP2;P2;SDS_P1;SDS_P2;PMS_P1;PMS_P2;Temp;Humidity;BMP_temperature;BMP_pressure;BME280_temperature;BME280_humidity;BME280_pressure;Samples;Min_cycle;Max_cycle;Signal;HPM_P1;HPM_P2
2021/07/01 00:00:45;;;;;;;2.83;1.40;;;26.00;54.30;;;;;;4341620;33;20180;-38
2021/07/01 00:03:12;;;;;;;1.30;1.20;;;26.10;53.70;;;;;;4341336;33;20609;-37
2021/07/01 00:05:38;;;;;;;2.80;1.98;;;26.00;53.90;;;;;;4341727;33;20222;-38
2021/07/01 00:08:05;;;;;;;2.85;1.40;;;26.00;54.50;;;;;;4329912;33;20218;-38
2021/07/01 00:10:31;;;;;;;4.35;2.70;;;26.00;55.00;;;;;;4341889;33;20069;-38
2021/07/01 00:12:58;;;;;;;2.87;2.62;;;25.90;56.00;;;;;;4341765;33;20129;-37
2021/07/01 00:15:27;;;;;;;5.78;4.60;;;26.00;56.50;;;;;;4354681;32;20074;-38
2021/07/01 00:17:54;;;;;;;5.75;4.75;;;26.00;57.40;;;;;;4356362;32;20133;-37
2021/07/01 00:20:21;;;;;;;5.37;4.65;;;26.10;57.70;;;;;;4356655;32;20073;-38
2021/07/01 00:22:48;;;;;;;5.70;4.50;;;26.20;58.00;;;;;;4344302;32;20047;-38
2021/07/01 00:25:15;;;;;;;9.07;4.85;;;26.20;58.10;;;;;;4328910;33;20075;-38
2021/07/01 00:27:42;;;;;;;4.32;3.83;;;26.30;58.10;;;;;;4341281;33;20298;-37
2021/07/01 00:30:09;;;;;;;9.50;5.60;;;26.30;58.00;;;;;;4328962;33;20089;-37
2021/07/01 00:32:36;;;;;;;4.85;4.30;;;26.30;58.80;;;;;;4325182;33;20168;-38
2021/07/01 00:35:05;;;;;;;5.68;4.25;;;26.40;58.30;;;;;;4329042;33;20174;-38
2021/07/01 00:37:32;;;;;;;4.90;4.28;;;26.50;58.20;;;;;;4341372;32;20086;-38
2021/07/01 00:40:05;;;;;;;8.70;4.72;;;26.60;58.20;;;;;;4328851;33;20607;-37
2021/07/01 00:42:32;;;;;;;7.53;5.37;;;26.70;58.00;;;;;;4341191;33;20527;-38
2021/07/01 00:44:58;;;;;;;8.82;4.80;;;26.70;57.70;;;;;;4341306;33;20079;-38
2021/07/01 00:47:25;;;;;;;7.43;4.72;;;26.80;57.70;;;;;;4340795;33;20192;-38
2021/07/01 00:49:52;;;;;;;5.87;4.72;;;26.80;57.50;;;;;;4328871;33;20547;-38
2021/07/01 00:52:19;;;;;;;6.30;4.70;;;26.80;57.60;;;;;;4316692;33;20220;-37
2021/07/01 00:54:45;;;;;;;4.85;4.45;;;26.90;57.50;;;;;;4329210;33;20067;-38
2021/07/01 00:57:12;;;;;;;5.65;5.03;;;26.90;57.50;;;;;;4316553;33;20149;-38
2021/07/01 00:59:38;;;;;;;6.80;4.85;;;26.90;57.30;;;;;;4341265;33;20066;-38
2021/07/01 01:02:06;;;;;;;6.37;4.28;;;26.90;57.20;;;;;;4335652;32;20066;-40
2021/07/01 01:04:34;;;;;;;3.87;3.35;;;26.90;57.10;;;;;;4384143;32;20066;-40
2021/07/01 01:07:02;;;;;;;4.60;3.53;;;27.00;57.00;;;;;;4373576;32;20073;-41
2021/07/01 01:09:29;;;;;;;4.53;4.12;;;27.00;57.00;;;;;;4385219;32;20112;-40
2021/07/01 01:11:55;;;;;;;6.75;4.28;;;27.10;57.10;;;;;;4385383;32;20503;-38
2021/07/01 01:14:22;;;;;;;5.82;4.47;;;27.20;56.90;;;;;;4373170;32;20089;-40
2021/07/01 01:16:48;;;;;;;5.18;4.68;;;27.20;56.70;;;;;;4385701;32;20161;-40
2021/07/01 01:19:15;;;;;;;7.50;4.65;;;27.30;56.50;;;;;;4360518;32;20082;-39
2021/07/01 01:21:59;;;;;;;6.12;4.60;;;27.30;56.50;;;;;;4343081;32;20506;-46
2021/07/01 01:24:26;;;;;;;4.45;3.67;;;27.40;56.50;;;;;;4355701;32;20152;-40
2021/07/01 01:26:52;;;;;;;4.18;3.85;;;27.40;56.20;;;;;;4331033;32;20221;-40
2021/07/01 01:30:24;;;;;;;7.35;4.47;;;27.50;56.10;;;;;;4355871;32;20196;-39
2021/07/01 01:33:09;;;;;;;5.35;3.17;;;27.60;56.00;;;;;;4355599;32;20175;-39
2021/07/01 01:35:36;;;;;;;3.30;3.00;;;27.70;55.40;;;;;;4343259;32;20070;-39
2021/07/01 01:38:02;;;;;;;2.60;2.40;;;27.80;54.90;;;;;;4355664;32;20050;-39
2021/07/01 01:40:29;;;;;;;4.18;2.33;;;27.80;54.60;;;;;;4356977;32;20066;-39
2021/07/01 01:42:56;;;;;;;2.55;2.08;;;27.80;55.10;;;;;;4358116;32;20063;-38
2021/07/01 01:45:23;;;;;;;1.70;1.42;;;27.80;54.10;;;;;;4357896;32;20131;-39
2021/07/01 01:47:50;;;;;;;1.37;1.27;;;27.90;53.90;;;;;;4363767;32;20141;-38
2021/07/01 01:50:18;;;;;;;2.30;1.65;;;28.10;53.30;;;;;;4371265;32;20054;-38
2021/07/01 01:52:46;;;;;;;2.30;1.23;;;28.20;53.10;;;;;;4372708;32;20522;-38
2021/07/01 01:55:13;;;;;;;2.03;1.27;;;28.40;52.60;;;;;;4372809;32;20149;-37
2021/07/01 01:57:49;;;;;;;2.78;1.20;;;28.60;52.20;;;;;;4372997;32;20082;-37
2021/07/01 02:00:18;;;;;;;1.55;1.17;;;28.80;51.60;;;;;;4371521;32;20082;-37
2021/07/01 02:02:44;;;;;;;2.70;1.10;;;29.10;51.10;;;;;;4371073;32;20514;-37
2021/07/01 02:05:11;;;;;;;2.05;1.10;;;29.20;50.30;;;;;;4371365;32;20125;-37
2021/07/01 02:07:38;;;;;;;1.50;1.10;;;29.40;49.60;;;;;;4371140;32;20074;-37
2021/07/01 02:10:07;;;;;;;3.10;1.00;;;29.60;50.00;;;;;;4376173;32;20154;-37
2021/07/01 02:12:33;;;;;;;2.72;1.08;;;29.70;48.80;;;;;;4376783;32;20096;-37
2021/07/01 02:15:01;;;;;;;1.40;1.08;;;29.80;48.80;;;;;;4406166;32;20074;-38
2021/07/01 02:17:27;;;;;;;1.25;1.00;;;29.90;48.50;;;;;;4405981;32;20062;-38
2021/07/01 02:19:54;;;;;;;1.85;1.10;;;30.00;48.30;;;;;;4405693;32;20065;-38
2021/07/01 02:22:20;;;;;;;2.42;1.10;;;30.10;48.00;;;;;;4405589;32;20101;-38
2021/07/01 02:24:47;;;;;;;2.83;1.00;;;30.20;47.70;;;;;;4405601;32;20076;-38
2021/07/01 02:27:13;;;;;;;4.55;1.48;;;30.30;47.50;;;;;;4391383;32;20109;-37
2021/07/01 02:29:40;;;;;;;3.80;1.20;;;30.40;47.30;;;;;;4405658;32;20081;-38
2021/07/01 02:32:07;;;;;;;2.85;1.40;;;30.50;47.00;;;;;;4405242;32;20556;-38
2021/07/01 02:34:39;;;;;;;1.60;1.00;;;30.60;46.90;;;;;;4391405;32;20531;-38
2021/07/01 02:37:07;;;;;;;1.45;1.02;;;30.70;46.60;;;;;;4392170;32;20046;-38
2021/07/01 02:39:35;;;;;;;1.30;1.00;;;30.90;46.30;;;;;;4405524;32;20243;-38
2021/07/01 02:42:02;;;;;;;4.00;1.10;;;31.00;46.00;;;;;;4391290;32;20063;-38
2021/07/01 02:44:29;;;;;;;2.17;1.00;;;31.00;46.00;;;;;;4405530;32;20498;-38
2021/07/01 02:46:55;;;;;;;5.55;1.10;;;30.90;45.90;;;;;;4405197;32;20057;-38
2021/07/01 02:49:22;;;;;;;2.72;1.10;;;30.90;46.10;;;;;;4389103;32;20165;-38
2021/07/01 02:51:48;;;;;;;3.72;1.40;;;30.80;46.10;;;;;;4390130;32;20061;-38
2021/07/01 02:54:15;;;;;;;4.05;1.20;;;30.70;46.30;;;;;;4390647;32;20126;-37
2021/07/01 02:56:42;;;;;;;3.55;1.05;;;30.70;46.60;;;;;;4357539;32;20098;-38
2021/07/01 02:59:15;;;;;;;2.75;1.40;;;30.70;46.40;;;;;;4357504;32;20066;-38
2021/07/01 03:01:48;;;;;;;5.15;1.23;;;30.70;46.10;;;;;;4345762;32;20066;-38
2021/07/01 03:04:15;;;;;;;3.70;1.20;;;30.80;46.20;;;;;;4345798;32;20083;-38
2021/07/01 03:06:43;;;;;;;3.25;1.10;;;30.80;46.10;;;;;;4357520;32;20058;-39
2021/07/01 03:09:09;;;;;;;2.05;1.20;;;30.90;45.90;;;;;;4357461;32;20132;-38
2021/07/01 03:11:36;;;;;;;1.60;1.48;;;31.00;45.80;;;;;;4356765;32;20095;-38
2021/07/01 03:14:03;;;;;;;1.85;1.00;;;31.20;45.60;;;;;;4345278;32;20106;-38
2021/07/01 03:16:31;;;;;;;4.10;1.73;;;31.40;45.20;;;;;;4344529;32;20090;-38
2021/07/01 03:18:57;;;;;;;3.70;2.17;;;31.70;44.80;;;;;;4344996;32;20639;-37
2021/07/01 03:21:24;;;;;;;1.92;0.93;;;32.00;44.20;;;;;;4356954;32;20071;-37
2021/07/01 03:23:51;;;;;;;2.55;0.88;;;32.40;43.70;;;;;;4356998;32;20150;-37
2021/07/01 03:26:18;;;;;;;1.65;1.12;;;32.70;43.00;;;;;;4356163;32;20098;-38
2021/07/01 03:28:44;;;;;;;1.42;0.85;;;33.10;43.10;;;;;;4385463;32;20062;-39
2021/07/01 03:31:11;;;;;;;2.85;1.08;;;33.40;41.80;;;;;;4389751;32;20078;-39
2021/07/01 03:33:37;;;;;;;1.60;1.08;;;33.70;41.30;;;;;;4389554;32;20166;-37
2021/07/01 03:36:05;;;;;;;3.78;1.35;;;33.90;40.70;;;;;;4375592;32;20084;-38
2021/07/01 03:38:32;;;;;;;3.12;1.30;;;34.10;40.50;;;;;;4387931;32;20064;-36
2021/07/01 03:40:59;;;;;;;1.33;1.12;;;34.10;40.10;;;;;;4389589;32;20085;-38
2021/07/01 03:43:25;;;;;;;1.60;1.30;;;34.10;40.20;;;;;;4388141;32;20061;-36
2021/07/01 03:45:52;;;;;;;2.25;1.60;;;34.10;40.40;;;;;;4389214;32;20072;-37
2021/07/01 03:48:20;;;;;;;2.03;1.83;;;34.10;40.50;;;;;;4398237;32;20054;-37
2021/07/01 03:50:47;;;;;;;2.67;2.47;;;34.10;40.20;;;;;;4391148;32;20185;-38
2021/07/01 03:53:13;;;;;;;3.92;3.58;;;34.10;40.40;;;;;;4390720;32;20521;-38
2021/07/01 03:55:40;;;;;;;5.55;4.28;;;33.90;40.70;;;;;;4404295;32;20049;-38
2021/07/01 03:58:06;;;;;;;4.90;4.50;;;33.80;41.30;;;;;;4403939;32;20141;-38
2021/07/01 04:00:32;;;;;;;3.72;3.40;;;33.70;41.30;;;;;;4404074;32;20053;-37
2021/07/01 04:02:59;;;;;;;4.10;2.90;;;33.60;41.50;;;;;;4404248;32;20050;-38
2021/07/01 04:05:26;;;;;;;3.42;3.12;;;33.40;41.80;;;;;;4404359;32;20077;-38
2021/07/01 04:07:52;;;;;;;4.35;3.70;;;33.30;42.30;;;;;;4403949;32;20080;-38
2021/07/01 04:10:19;;;;;;;3.20;2.90;;;33.20;41.90;;;;;;4403878;32;20069;-38
2021/07/01 04:12:46;;;;;;;3.97;2.95;;;33.10;42.10;;;;;;4390406;32;20063;-38
2021/07/01 04:15:13;;;;;;;3.78;2.67;;;33.10;42.40;;;;;;4404213;32;20088;-38
2021/07/01 04:17:40;;;;;;;5.30;2.80;;;33.10;42.30;;;;;;4404246;32;20168;-38
2021/07/01 04:20:07;;;;;;;3.70;2.65;;;33.20;42.40;;;;;;4390180;32;20179;-47
2021/07/01 04:22:34;;;;;;;4.00;2.58;;;33.30;42.30;;;;;;4404072;32;20068;-38
2021/07/01 04:25:00;;;;;;;5.85;2.50;;;33.40;42.30;;;;;;4389853;32;20547;-38
2021/07/01 04:27:27;;;;;;;4.43;2.00;;;33.40;42.10;;;;;;4403676;32;20064;-38
2021/07/01 04:29:53;;;;;;;2.55;2.35;;;33.50;42.30;;;;;;4403689;32;20061;-37
2021/07/01 04:32:21;;;;;;;3.12;2.92;;;33.50;42.00;;;;;;4390016;32;20181;-38
2021/07/01 04:34:49;;;;;;;3.15;2.85;;;33.60;41.80;;;;;;4404138;32;20532;-38
2021/07/01 04:37:16;;;;;;;4.35;3.50;;;33.50;41.80;;;;;;4389825;32;20116;-38
2021/07/01 04:39:42;;;;;;;2.50;2.17;;;33.40;42.10;;;;;;4376733;32;20080;-38
2021/07/01 04:42:09;;;;;;;2.70;2.45;;;33.40;42.30;;;;;;4389614;32;20070;-37
2021/07/01 04:44:35;;;;;;;3.10;2.83;;;33.50;41.90;;;;;;4389341;32;20062;-37
2021/07/01 04:47:03;;;;;;;3.20;2.70;;;33.60;42.00;;;;;;4402256;32;20069;-38
2021/07/01 04:49:29;;;;;;;3.22;2.65;;;33.70;42.10;;;;;;4386863;32;20090;-38
2021/07/01 04:51:55;;;;;;;2.95;2.70;;;33.70;42.20;;;;;;4388050;32;20054;-38
2021/07/01 04:54:22;;;;;;;2.75;2.55;;;33.80;42.10;;;;;;4386996;32;20097;-37
2021/07/01 04:56:48;;;;;;;5.95;3.22;;;33.90;42.10;;;;;;4386950;32;20065;-38
2021/07/01 04:59:20;;;;;;;3.75;3.45;;;33.90;41.80;;;;;;4387960;32;20158;-38
2021/07/01 05:01:46;;;;;;;3.15;2.83;;;33.90;42.10;;;;;;4387417;32;20077;-39
2021/07/01 05:04:14;;;;;;;3.70;3.40;;;33.80;42.10;;;;;;4387226;32;20173;-38
2021/07/01 05:06:41;;;;;;;4.28;3.58;;;33.70;42.20;;;;;;4387228;32;20073;-38
2021/07/01 05:09:09;;;;;;;4.43;3.62;;;33.50;42.30;;;;;;4386974;32;20069;-38
2021/07/01 05:11:36;;;;;;;5.07;3.33;;;33.30;42.70;;;;;;4386833;32;20065;-38
2021/07/01 05:14:03;;;;;;;5.35;3.78;;;33.10;42.70;;;;;;4388664;32;20085;-38
2021/07/01 05:16:32;;;;;;;5.30;3.83;;;33.00;43.00;;;;;;4388005;32;20058;-38
2021/07/01 05:18:59;;;;;;;6.25;4.45;;;32.80;43.50;;;;;;4388060;32;20141;-37
2021/07/01 05:21:25;;;;;;;4.18;3.87;;;32.60;44.00;;;;;;4357973;32;20499;-37
2021/07/01 05:23:52;;;;;;;6.40;4.25;;;32.60;43.80;;;;;;4357782;32;20076;-37
2021/07/01 05:26:19;;;;;;;4.30;3.90;;;32.50;44.00;;;;;;4370310;32;20073;-38
2021/07/01 05:28:45;;;;;;;4.93;3.85;;;32.40;44.00;;;;;;4357710;32;20067;-38
2021/07/01 05:31:12;;;;;;;4.15;3.72;;;32.40;44.30;;;;;;4370334;32;20155;-38
2021/07/01 05:33:38;;;;;;;4.85;4.32;;;32.50;44.10;;;;;;4357872;32;20108;-38
2021/07/01 05:36:05;;;;;;;6.80;4.35;;;32.50;43.90;;;;;;4357781;32;20126;-38
2021/07/01 05:38:32;;;;;;;7.30;4.28;;;32.60;43.40;;;;;;4370587;32;20125;-38
2021/07/01 05:40:59;;;;;;;5.40;5.00;;;32.60;43.40;;;;;;4370322;32;20208;-38
2021/07/01 05:43:25;;;;;;;4.50;3.95;;;32.60;43.50;;;;;;4357879;32;20077;-38
2021/07/01 05:45:55;;;;;;;5.72;4.07;;;32.90;43.00;;;;;;4370478;32;20069;-39
2021/07/01 05:48:23;;;;;;;6.47;4.03;;;33.10;42.80;;;;;;4346494;32;20078;-38
2021/07/01 05:50:59;;;;;;;4.87;4.47;;;33.40;42.50;;;;;;4361142;32;20553;-38
2021/07/01 05:56:14;;;;;;;4.72;3.87;;;33.80;42.10;;;;;;4381248;32;20061;-39
2021/07/01 05:58:40;;;;;;;5.43;4.30;;;34.10;41.60;;;;;;4405902;32;20188;-38
2021/07/01 06:01:07;;;;;;;4.93;4.28;;;34.30;41.00;;;;;;4405797;32;20165;-38
2021/07/01 06:03:34;;;;;;;6.57;4.70;;;34.60;40.80;;;;;;4391738;32;20065;-38
2021/07/01 06:06:10;;;;;;;5.55;4.57;;;34.80;40.20;;;;;;4405944;32;20595;-39
2021/07/01 06:08:37;;;;;;;5.37;4.87;;;34.90;40.00;;;;;;4361185;32;20082;-38
2021/07/01 06:11:06;;;;;;;4.70;4.30;;;34.90;39.60;;;;;;4372853;32;20530;-39
2021/07/01 06:13:42;;;;;;;5.00;4.40;;;34.80;39.80;;;;;;4360268;32;20080;-39
2021/07/01 06:16:15;;;;;;;4.80;4.40;;;34.70;40.10;;;;;;4373109;32;20486;-39
2021/07/01 06:18:42;;;;;;;6.70;4.75;;;34.50;40.20;;;;;;4360825;32;20058;-38
2021/07/01 06:21:09;;;;;;;7.28;4.45;;;34.20;40.30;;;;;;4360729;32;20224;-40
2021/07/01 06:23:40;;;;;;;7.18;4.87;;;33.90;41.00;;;;;;4360497;32;20532;-39
2021/07/01 06:26:07;;;;;;;4.78;4.37;;;33.70;41.60;;;;;;4373224;32;20073;-38
2021/07/01 06:28:40;;;;;;;5.60;5.00;;;33.50;41.70;;;;;;4373095;32;20096;-38
2021/07/01 06:31:10;;;;;;;5.10;4.60;;;33.40;42.40;;;;;;4372846;32;20102;-38
2021/07/01 06:33:42;;;;;;;5.35;4.85;;;33.40;42.90;;;;;;4360264;32;20058;-38
2021/07/01 06:36:09;;;;;;;7.00;5.10;;;33.60;42.40;;;;;;4372592;32;20085;-40
2021/07/01 06:38:36;;;;;;;6.15;5.07;;;33.60;41.90;;;;;;4372848;32;20534;-38
2021/07/01 06:41:05;;;;;;;7.15;5.15;;;33.60;42.20;;;;;;4372759;32;20176;-38
2021/07/01 06:43:32;;;;;;;5.82;5.32;;;33.60;42.10;;;;;;4360180;32;20159;-38
2021/07/01 06:45:59;;;;;;;6.40;5.80;;;33.60;42.00;;;;;;4365412;32;20155;-39
2021/07/01 06:48:26;;;;;;;9.82;6.10;;;33.50;42.40;;;;;;4373401;32;20062;-39
2021/07/01 06:51:01;;;;;;;5.22;4.72;;;33.60;42.60;;;;;;4373499;32;20130;-40
2021/07/01 06:53:28;;;;;;;5.95;5.22;;;33.70;42.50;;;;;;4361191;32;20069;-38
2021/07/01 06:55:57;;;;;;;8.02;5.37;;;33.90;41.70;;;;;;4374160;32;20150;-39
2021/07/01 06:58:23;;;;;;;10.65;5.30;;;34.10;41.30;;;;;;4374876;32;20072;-39
2021/07/01 07:00:50;;;;;;;5.12;4.65;;;34.30;41.00;;;;;;4374612;32;20145;-39
2021/07/01 07:03:18;;;;;;;8.25;4.85;;;34.60;40.80;;;;;;4373260;32;20061;-38
2021/07/01 07:05:52;;;;;;;5.62;4.30;;;35.00;40.30;;;;;;4374760;32;20137;-38
2021/07/01 07:08:20;;;;;;;8.00;4.05;;;35.50;39.50;;;;;;4374400;32;20562;-39
2021/07/01 07:10:47;;;;;;;5.22;4.72;;;35.90;39.20;;;;;;4386319;32;20080;-39
2021/07/01 07:13:14;;;;;;;6.70;4.85;;;36.20;38.10;;;;;;4391349;32;20512;-38
2021/07/01 07:15:42;;;;;;;5.37;4.18;;;36.40;37.80;;;;;;4371616;32;20097;-38
2021/07/01 07:18:30;;;;;;;4.30;4.00;;;36.30;37.20;;;;;;4372203;32;20153;-39
2021/07/01 07:21:18;;;;;;;4.65;4.25;;;36.10;37.40;;;;;;4361038;32;20155;-39
2021/07/01 07:23:56;;;;;;;5.70;4.07;;;35.70;37.60;;;;;;4359662;32;20194;-38
2021/07/01 07:26:25;;;;;;;4.93;4.53;;;35.30;38.20;;;;;;4347376;32;20566;-38
2021/07/01 07:28:55;;;;;;;4.37;3.50;;;35.20;38.90;;;;;;4359225;32;20105;-38
2021/07/01 07:31:31;;;;;;;5.97;3.22;;;35.20;39.30;;;;;;4359646;32;20097;-38
2021/07/01 07:34:04;;;;;;;3.83;2.90;;;35.20;38.10;;;;;;4360237;32;20078;-40
2021/07/01 07:36:31;;;;;;;5.68;3.62;;;35.10;37.80;;;;;;4315466;33;20154;-38
2021/07/01 07:38:57;;;;;;;2.70;2.50;;;34.90;38.50;;;;;;4315668;33;20078;-39
2021/07/01 07:41:24;;;;;;;3.75;2.72;;;34.80;38.20;;;;;;4327095;33;20102;-40
2021/07/01 07:43:51;;;;;;;2.83;2.62;;;34.90;38.70;;;;;;4327547;33;20067;-39
2021/07/01 07:46:22;;;;;;;2.35;2.15;;;35.00;38.10;;;;;;4327407;33;20094;-38
2021/07/01 07:48:49;;;;;;;3.37;2.87;;;35.10;37.90;;;;;;4315336;33;20209;-38
2021/07/01 07:51:17;;;;;;;5.05;4.28;;;35.20;37.60;;;;;;4312544;33;20161;-38
2021/07/01 07:53:48;;;;;;;4.43;3.53;;;35.20;37.70;;;;;;4324490;33;20082;-41
2021/07/01 07:56:16;;;;;;;5.37;4.57;;;35.10;37.70;;;;;;4341958;33;20067;-40
2021/07/01 07:58:46;;;;;;;5.15;4.10;;;34.80;37.80;;;;;;4341693;33;20676;-39
2021/07/01 08:01:13;;;;;;;4.72;4.28;;;34.60;37.70;;;;;;4341854;33;20070;-38
2021/07/01 08:03:41;;;;;;;4.18;3.75;;;34.40;38.10;;;;;;4341846;33;20101;-38
2021/07/01 08:06:09;;;;;;;6.28;3.70;;;34.10;38.50;;;;;;4341743;33;20078;-38
2021/07/01 08:08:42;;;;;;;5.18;4.45;;;34.00;38.20;;;;;;4386742;32;20058;-37
2021/07/01 08:11:10;;;;;;;4.32;3.92;;;34.00;38.50;;;;;;4387927;32;20057;-38
2021/07/01 08:13:38;;;;;;;4.18;3.78;;;33.90;38.40;;;;;;4375019;32;20146;-37
2021/07/01 08:16:05;;;;;;;4.32;4.03;;;33.90;38.90;;;;;;4388765;32;20541;-36
2021/07/01 08:18:41;;;;;;;6.00;3.95;;;33.90;39.20;;;;;;4388652;32;20138;-39
2021/07/01 08:21:10;;;;;;;4.18;3.87;;;33.90;39.00;;;;;;4388247;32;20081;-40
2021/07/01 08:23:39;;;;;;;4.00;3.70;;;33.90;39.00;;;;;;4388601;32;20495;-38
2021/07/01 08:26:05;;;;;;;9.07;3.40;;;33.80;38.80;;;;;;4388391;32;20541;-38
2021/07/01 08:28:32;;;;;;;6.05;2.83;;;33.80;38.80;;;;;;4388652;32;20608;-38
2021/07/01 08:31:05;;;;;;;3.47;2.30;;;33.70;38.20;;;;;;4388346;32;20126;-39
2021/07/01 08:33:36;;;;;;;3.70;2.00;;;33.70;37.80;;;;;;4375249;32;20053;-37
2021/07/01 08:36:04;;;;;;;5.45;2.28;;;33.70;38.10;;;;;;4374547;32;20096;-39
2021/07/01 08:38:37;;;;;;;3.87;2.03;;;33.60;38.30;;;;;;4388748;32;20062;-39
2021/07/01 08:41:25;;;;;;;3.50;1.30;;;33.70;38.10;;;;;;4388261;32;20070;-39
2021/07/01 08:43:57;;;;;;;1.85;1.45;;;33.70;37.70;;;;;;4388112;32;20174;-39
2021/07/01 08:46:46;;;;;;;1.58;1.10;;;33.50;37.20;;;;;;4388252;32;20069;-39
2021/07/01 08:49:13;;;;;;;2.42;2.20;;;33.40;37.60;;;;;;4374539;32;20085;-38
2021/07/01 08:51:45;;;;;;;1.73;1.58;;;33.40;38.10;;;;;;4362000;32;20101;-38
2021/07/01 08:54:31;;;;;;;1.45;1.35;;;33.40;38.20;;;;;;4374175;32;20091;-39
2021/07/01 08:56:58;;;;;;;2.28;1.50;;;33.40;37.80;;;;;;4387940;32;20058;-40
2021/07/01 08:59:27;;;;;;;2.17;1.42;;;33.30;37.80;;;;;;4387887;32;20071;-39
2021/07/01 09:02:02;;;;;;;3.85;1.65;;;33.20;37.90;;;;;;4374413;32;20146;-41
2021/07/01 09:04:35;;;;;;;2.30;1.80;;;33.10;38.10;;;;;;4355788;32;20165;-40
2021/07/01 09:07:04;;;;;;;2.28;1.83;;;33.10;37.10;;;;;;4344168;32;20070;-40
2021/07/01 09:09:35;;;;;;;2.17;1.60;;;33.10;37.10;;;;;;4356029;32;20063;-40
2021/07/01 09:12:06;;;;;;;1.67;1.35;;;33.10;36.80;;;;;;4355920;32;20208;-39
2021/07/01 09:14:32;;;;;;;1.73;1.42;;;33.00;37.70;;;;;;4356068;32;20106;-38
2021/07/01 09:17:12;;;;;;;1.55;1.30;;;32.90;37.50;;;;;;4355619;32;20084;-39
2021/07/01 09:19:39;;;;;;;1.27;1.17;;;32.80;37.60;;;;;;4355538;32;20549;-38
2021/07/01 09:22:11;;;;;;;2.75;1.33;;;32.80;37.70;;;;;;4355601;32;20579;-39
2021/07/01 09:24:38;;;;;;;1.77;1.27;;;33.00;38.10;;;;;;4355962;32;20105;-38
2021/07/01 09:27:12;;;;;;;1.70;1.50;;;33.20;37.30;;;;;;4356084;32;20070;-39
2021/07/01 09:29:42;;;;;;;1.58;1.30;;;33.40;36.40;;;;;;4355572;32;20101;-37
2021/07/01 09:32:09;;;;;;;3.40;1.33;;;33.50;36.30;;;;;;4355511;32;20061;-38
2021/07/01 09:34:36;;;;;;;1.20;1.10;;;33.50;36.00;;;;;;4343024;32;20141;-38
2021/07/01 09:37:03;;;;;;;2.95;1.40;;;33.50;36.10;;;;;;4331059;32;20164;-38
2021/07/01 09:39:34;;;;;;;3.78;1.20;;;33.50;35.90;;;;;;4343175;32;20197;-39
2021/07/01 09:42:01;;;;;;;4.15;1.27;;;33.40;36.40;;;;;;4372508;32;20069;-38
2021/07/01 09:44:29;;;;;;;2.47;1.35;;;33.30;37.10;;;;;;4373858;32;20261;-40
2021/07/01 09:46:58;;;;;;;2.20;0.90;;;33.40;37.50;;;;;;4374381;32;20270;-39
2021/07/01 09:49:34;;;;;;;1.05;0.90;;;33.40;37.10;;;;;;4403050;32;20490;-39
2021/07/01 09:52:07;;;;;;;1.25;1.02;;;33.50;37.30;;;;;;4402709;32;20103;-39
2021/07/01 09:54:35;;;;;;;1.23;0.90;;;33.50;37.00;;;;;;4402817;32;20546;-39
2021/07/01 09:57:30;;;;;;;3.10;1.62;;;33.40;36.80;;;;;;4402673;32;20048;-40
2021/07/01 10:00:03;;;;;;;4.43;1.25;;;33.40;37.10;;;;;;4390993;32;20485;-39
2021/07/01 10:02:30;;;;;;;1.42;1.00;;;33.40;36.90;;;;;;4388847;32;20072;-38
2021/07/01 10:04:57;;;;;;;1.65;1.00;;;33.40;36.70;;;;;;4402757;32;20070;-38
2021/07/01 10:07:25;;;;;;;1.85;1.10;;;33.50;36.90;;;;;;4402718;32;20169;-39
2021/07/01 10:09:57;;;;;;;1.70;1.20;;;33.60;36.90;;;;;;4388744;32;20073;-38
2021/07/01 10:12:26;;;;;;;1.92;1.20;;;33.60;36.80;;;;;;4388837;32;20100;-41
2021/07/01 10:14:56;;;;;;;3.62;1.27;;;33.70;36.60;;;;;;4402639;32;20069;-39
2021/07/01 10:17:23;;;;;;;1.20;1.00;;;33.70;36.20;;;;;;4402459;32;20116;-38
2021/07/01 10:20:01;;;;;;;1.00;0.90;;;33.70;36.10;;;;;;4402964;32;20156;-39
2021/07/01 10:22:28;;;;;;;1.80;1.00;;;33.80;36.40;;;;;;4389647;32;20431;-39
2021/07/01 10:24:58;;;;;;;2.33;1.10;;;33.90;36.20;;;;;;4388424;32;20548;-38
2021/07/01 10:27:34;;;;;;;3.95;0.88;;;34.00;35.90;;;;;;4402499;32;20073;-39
2021/07/01 10:30:14;;;;;;;2.03;0.90;;;33.90;35.60;;;;;;4402372;32;20165;-39
2021/07/01 10:32:44;;;;;;;3.30;1.10;;;33.80;35.60;;;;;;4402808;32;20494;-39
2021/07/01 10:35:33;;;;;;;1.50;0.80;;;33.80;35.80;;;;;;4404428;32;20085;-39
2021/07/01 10:38:08;;;;;;;4.07;1.10;;;33.70;36.10;;;;;;4405327;32;20472;-39
2021/07/01 10:41:01;;;;;;;0.82;0.82;;;33.80;36.30;;;;;;4405601;32;20216;-39
2021/07/01 10:43:47;;;;;;;3.15;0.90;;;33.90;36.20;;;;;;4404819;32;20455;-40
2021/07/01 10:46:13;;;;;;;2.25;2.00;;;33.90;36.00;;;;;;4371988;32;20070;-39
2021/07/01 10:48:40;;;;;;;4.43;1.00;;;33.90;36.70;;;;;;4360159;32;20584;-38
2021/07/01 10:51:12;;;;;;;4.70;1.42;;;33.80;35.90;;;;;;4359925;32;20085;-39
2021/07/01 10:53:39;;;;;;;1.02;0.77;;;33.80;35.10;;;;;;4372904;32;20069;-37
2021/07/01 10:56:17;;;;;;;4.90;0.82;;;33.70;35.30;;;;;;4372520;32;20182;-38
2021/07/01 10:58:44;;;;;;;1.58;0.70;;;33.70;35.40;;;;;;4361319;32;20136;-36
2021/07/01 11:01:32;;;;;;;1.00;0.90;;;33.70;35.20;;;;;;4372425;32;20147;-38
2021/07/01 11:04:10;;;;;;;2.00;0.90;;;33.80;35.40;;;;;;4372372;32;20073;-39
2021/07/01 11:06:38;;;;;;;2.30;0.80;;;33.90;36.20;;;;;;4372544;32;20081;-37
2021/07/01 11:09:06;;;;;;;1.73;0.90;;;33.90;34.70;;;;;;4359836;32;20089;-38
2021/07/01 11:11:34;;;;;;;2.87;0.90;;;33.90;34.80;;;;;;4359849;32;20079;-39
2021/07/01 11:14:04;;;;;;;0.80;0.80;;;33.90;35.00;;;;;;4360246;32;20077;-37
2021/07/01 11:16:47;;;;;;;2.17;1.02;;;33.90;35.00;;;;;;4375976;32;20050;-39
2021/07/01 11:19:16;;;;;;;1.10;0.90;;;34.00;35.30;;;;;;4389969;32;20077;-37
2021/07/01 11:21:53;;;;;;;1.10;1.00;;;34.10;34.90;;;;;;4389754;32;20133;-39
2021/07/01 11:24:22;;;;;;;0.90;0.80;;;34.10;35.00;;;;;;4389406;32;20540;-38
2021/07/01 11:26:56;;;;;;;1.27;1.10;;;34.10;34.40;;;;;;4375913;32;20513;-38
2021/07/01 11:29:42;;;;;;;3.80;0.70;;;34.20;34.40;;;;;;4389391;32;20077;-38
2021/07/01 11:32:30;;;;;;;2.42;1.10;;;34.30;35.40;;;;;;4388122;32;20065;-38
2021/07/01 11:34:57;;;;;;;1.05;0.80;;;34.60;34.70;;;;;;4389606;32;20068;-39
2021/07/01 11:37:39;;;;;;;1.05;0.80;;;34.80;34.40;;;;;;4375222;32;20100;-38
2021/07/01 11:40:22;;;;;;;2.62;0.95;;;34.90;34.40;;;;;;4375923;32;20534;-39
2021/07/01 11:42:53;;;;;;;1.10;1.00;;;35.00;34.20;;;;;;4387873;32;20088;-39
2021/07/01 11:45:21;;;;;;;2.12;0.90;;;35.20;33.80;;;;;;4389017;32;20147;-38
2021/07/01 11:47:47;;;;;;;2.17;1.00;;;35.60;33.30;;;;;;4375580;32;20147;-39
2021/07/01 11:50:14;;;;;;;4.53;1.20;;;36.00;32.90;;;;;;4375899;32;20069;-40
2021/07/01 11:52:44;;;;;;;5.10;0.90;;;36.10;33.00;;;;;;4389507;32;20085;-38
2021/07/01 11:55:13;;;;;;;1.50;1.05;;;36.20;33.00;;;;;;4357513;32;20134;-38
2021/07/01 11:57:40;;;;;;;3.00;1.05;;;36.30;32.80;;;;;;4356461;32;20082;-38
2021/07/01 12:00:07;;;;;;;4.43;1.00;;;36.40;32.10;;;;;;4344169;32;20169;-38
2021/07/01 12:02:34;;;;;;;3.00;1.00;;;36.40;31.40;;;;;;4344154;32;20164;-38
2021/07/01 12:05:04;;;;;;;1.10;0.93;;;36.20;31.90;;;;;;4344019;32;20066;-37
2021/07/01 12:07:33;;;;;;;1.10;0.93;;;36.20;32.30;;;;;;4344266;32;20073;-38
2021/07/01 12:10:00;;;;;;;1.40;1.08;;;36.00;32.00;;;;;;4344207;32;20078;-39
2021/07/01 12:12:26;;;;;;;1.08;0.90;;;35.90;32.60;;;;;;4314118;33;20135;-39
2021/07/01 12:15:13;;;;;;;2.22;1.00;;;35.70;32.60;;;;;;4326855;33;20077;-39
2021/07/01 12:18:03;;;;;;;5.37;1.30;;;35.60;32.80;;;;;;4326615;33;20075;-38
2021/07/01 12:20:39;;;;;;;2.45;1.15;;;35.30;33.00;;;;;;4326437;33;20238;-37
2021/07/01 12:23:16;;;;;;;2.00;0.95;;;35.10;33.30;;;;;;4326558;33;20086;-39
2021/07/01 12:25:45;;;;;;;2.55;1.25;;;35.00;34.00;;;;;;4312007;33;20087;-39
2021/07/01 12:28:15;;;;;;;1.35;1.25;;;34.90;34.40;;;;;;4311459;33;20091;-38
2021/07/01 12:31:03;;;;;;;2.85;1.50;;;34.90;34.30;;;;;;4311814;33;20144;-38
2021/07/01 12:33:42;;;;;;;3.45;1.27;;;34.90;34.40;;;;;;4324036;33;20145;-39
2021/07/01 12:36:42;;;;;;;7.32;1.50;;;34.70;35.40;;;;;;4326437;33;20074;-38
2021/07/01 12:39:10;;;;;;;4.40;1.50;;;34.50;36.70;;;;;;4326463;33;20684;-39
2021/07/01 12:41:39;;;;;;;3.20;1.35;;;34.20;37.40;;;;;;4326443;33;20059;-38
2021/07/01 12:44:22;;;;;;;5.57;1.65;;;33.90;38.10;;;;;;4336652;32;20188;-38
2021/07/01 12:46:48;;;;;;;12.37;2.47;;;33.60;37.80;;;;;;4356177;32;20058;-39
2021/07/01 12:49:18;;;;;;;9.93;1.60;;;33.30;38.10;;;;;;4370696;32;20067;-39
2021/07/01 12:51:54;;;;;;;16.85;1.20;;;33.10;37.70;;;;;;4370860;32;20511;-39
2021/07/01 12:54:23;;;;;;;14.75;1.80;;;32.80;37.40;;;;;;4358918;32;20055;-39
2021/07/01 12:56:51;;;;;;;8.85;1.17;;;32.60;37.30;;;;;;4379986;32;20058;-38
2021/07/01 12:59:18;;;;;;;9.05;1.30;;;32.40;37.30;;;;;;4374439;32;20433;-39
2021/07/01 13:01:45;;;;;;;3.25;1.00;;;32.30;37.30;;;;;;4374584;32;20057;-39